Time;durP1;ratioP1;P1;durP2;ratioP2;P2;SDS_P1;SDS_P2;PMS_P1;PMS_P2;Temp;Humidity;BMP_temperature;BMP_pressure;BME280_temperature;BME280_humidity;BME280_pressure;Samples;Min_cycle;Max_cycle;Signal;HPM_P1;HPM_P2
2022/01/27 00:00:49;;;;;;;;;;;23.10;43.70;;;;;;1518817;78;1041;-72
2022/01/27 00:03:06;;;;;;;;;;;23.00;43.60;;;;;;1522487;78;1572;-72
2022/01/27 00:05:33;;;;;;;;;;;23.10;43.80;;;;;;1527682;76;1579;-72
2022/01/27 00:06:57;;;;;;;;;;;23.00;43.70;;;;;;1536717;76;1068;-73
2022/01/27 00:09:09;;;;;;;;;;;23.10;43.90;;;;;;1543726;77;1931;-72
2022/01/27 00:11:09;;;;;;;;;;;23.10;43.90;;;;;;1541821;76;981;-72
2022/01/27 00:13:13;;;;;;;;;;;23.10;43.90;;;;;;1543242;76;1166;-73
2022/01/27 00:15:12;;;;;;;;;;;23.10;43.90;;;;;;1547127;77;1075;-72
2022/01/27 00:17:15;;;;;;;;;;;23.10;44.00;;;;;;1549109;77;1167;-73
2022/01/27 00:19:17;;;;;;;;;;;23.10;44.10;;;;;;1540337;76;725;-73
2022/01/27 00:21:26;;;;;;;;;;;23.20;43.90;;;;;;1523640;78;1089;-73
2022/01/27 00:23:28;;;;;;;;;;;23.20;43.90;;;;;;1522823;78;1284;-72
2022/01/27 00:25:30;;;;;;;;;;;23.20;43.90;;;;;;1523578;78;678;-73
2022/01/27 00:27:32;;;;;;;;;;;23.20;44.10;;;;;;1538226;76;697;-73
2022/01/27 00:29:34;;;;;;;;;;;23.20;43.90;;;;;;1549077;77;1923;-73
2022/01/27 00:31:36;;;;;;;;;;;23.10;44.00;;;;;;1549308;76;1167;-73
2022/01/27 00:33:38;;;;;;;;;;;23.20;44.00;;;;;;1549325;77;660;-73
2022/01/27 00:35:40;;;;;;;;;;;23.10;44.00;;;;;;1549157;77;727;-74
2022/01/27 00:37:42;;;;;;;;;;;23.20;44.00;;;;;;1530372;76;739;-74
2022/01/27 00:39:44;;;;;;;;;;;23.30;44.10;;;;;;1545202;77;750;-76
2022/01/27 00:41:45;;;;;;;;;;;23.20;43.90;;;;;;1546311;77;1127;-74
2022/01/27 00:43:48;;;;;;;;;;;23.20;44.10;;;;;;1546225;77;726;-74
2022/01/27 00:45:50;;;;;;;;;;;23.20;44.10;;;;;;1549104;76;720;-74
2022/01/27 00:47:52;;;;;;;;;;;23.20;44.20;;;;;;1549228;77;755;-74
2022/01/27 00:49:54;;;;;;;;;;;23.10;44.20;;;;;;1549597;76;1943;-73
2022/01/27 00:51:57;;;;;;;;;;;23.20;44.20;;;;;;1549159;77;1225;-74
2022/01/27 00:54:15;;;;;;;;;;;23.20;44.20;;;;;;1549264;77;720;-73
2022/01/27 00:56:23;;;;;;;;;;;23.20;44.20;;;;;;1547553;76;998;-73
2022/01/27 00:58:46;;;;;;;;;;;23.20;44.20;;;;;;1547982;77;1145;-73
2022/01/27 01:00:37;;;;;;;;;;;23.20;44.20;;;;;;1545365;77;1026;-73
2022/01/27 01:02:48;;;;;;;;;;;23.20;44.30;;;;;;1548317;76;1182;-73
2022/01/27 01:04:47;;;;;;;;;;;23.20;44.30;;;;;;1546797;76;1153;-73
2022/01/27 01:06:49;;;;;;;;;;;23.20;44.30;;;;;;1548165;76;1080;-74
2022/01/27 01:11:35;;;;;;;;;;;23.20;44.30;;;;;;1549186;77;806;-75
2022/01/27 01:15:37;;;;;;;;;;;23.20;44.40;;;;;;1549475;76;1649;-75
2022/01/27 01:17:50;;;;;;;;;;;23.10;44.40;;;;;;1548561;76;1126;-74
2022/01/27 01:19:59;;;;;;;;;;;23.20;44.40;;;;;;1547292;76;1137;-74
2022/01/27 01:31:10;;;;;;;;;;;23.10;44.70;;;;;;1549233;77;1639;-73
2022/01/27 01:32:59;;;;;;;;;;;23.10;44.70;;;;;;1545857;76;1179;-73
2022/01/27 01:35:05;;;;;;;;;;;23.10;44.70;;;;;;1549111;77;768;-73
2022/01/27 01:37:07;;;;;;;;;;;23.20;44.70;;;;;;1548647;76;1096;-74
2022/01/27 01:39:08;;;;;;;;;;;23.20;44.80;;;;;;1538735;76;935;-73
2022/01/27 01:41:10;;;;;;;;;;;23.20;44.70;;;;;;1546411;75;1135;-74
2022/01/27 01:43:12;;;;;;;;;;;23.20;44.70;;;;;;1548077;76;677;-73
2022/01/27 01:45:17;;;;;;;;;;;23.20;44.70;;;;;;1547864;77;743;-73
2022/01/27 01:47:20;;;;;;;;;;;23.20;44.70;;;;;;1547989;77;732;-72
2022/01/27 01:49:26;;;;;;;;;;;23.20;44.70;;;;;;1539468;76;1917;-74
2022/01/27 01:51:27;;;;;;;;;;;23.20;44.80;;;;;;1522876;77;1141;-74
2022/01/27 01:53:29;;;;;;;;;;;23.10;44.70;;;;;;1523542;78;715;-74
2022/01/27 01:55:31;;;;;;;;;;;23.20;44.90;;;;;;1523443;78;741;-73
2022/01/27 01:57:33;;;;;;;;;;;23.10;44.80;;;;;;1525050;76;743;-72
2022/01/27 01:59:37;;;;;;;;;;;23.20;44.80;;;;;;1523612;78;730;-73
2022/01/27 02:01:39;;;;;;;;;;;23.20;44.80;;;;;;1523396;78;1195;-73
2022/01/27 02:03:41;;;;;;;;;;;23.20;44.90;;;;;;1523539;78;697;-73
2022/01/27 02:05:49;;;;;;;;;;;23.20;44.90;;;;;;1543165;76;733;-73
2022/01/27 02:08:01;;;;;;;;;;;23.20;45.00;;;;;;1542847;77;1086;-73
2022/01/27 02:19:18;;;;;;;;;;;23.20;45.20;;;;;;1540545;76;748;-73
2022/01/27 02:21:19;;;;;;;;;;;23.20;45.30;;;;;;1523512;78;1133;-72
2022/01/27 02:23:21;;;;;;;;;;;23.10;45.30;;;;;;1523535;78;695;-72
2022/01/27 02:25:23;;;;;;;;;;;23.10;45.30;;;;;;1523505;78;793;-72
2022/01/27 02:27:25;;;;;;;;;;;23.20;45.40;;;;;;1523613;78;747;-72
2022/01/27 02:29:27;;;;;;;;;;;23.20;45.30;;;;;;1524930;76;1952;-72
2022/01/27 02:31:29;;;;;;;;;;;23.20;45.40;;;;;;1523470;78;1171;-73
2022/01/27 02:33:31;;;;;;;;;;;23.20;45.30;;;;;;1523587;78;806;-72
2022/01/27 02:35:34;;;;;;;;;;;23.10;45.30;;;;;;1523466;78;715;-74
2022/01/27 02:37:36;;;;;;;;;;;23.20;45.30;;;;;;1525024;76;722;-72
2022/01/27 02:39:37;;;;;;;;;;;23.20;45.40;;;;;;1523519;78;560;-74
2022/01/27 02:41:43;;;;;;;;;;;23.10;45.50;;;;;;1523509;78;1081;-72
2022/01/27 02:43:45;;;;;;;;;;;23.20;45.50;;;;;;1494635;77;740;-73
2022/01/27 02:45:52;;;;;;;;;;;23.10;45.50;;;;;;1531682;75;725;-73
2022/01/27 02:47:54;;;;;;;;;;;23.20;45.50;;;;;;1549656;75;1011;-72
2022/01/27 02:49:56;;;;;;;;;;;23.10;45.50;;;;;;1548136;76;1936;-72
2022/01/27 02:51:57;;;;;;;;;;;23.10;45.60;;;;;;1550620;76;1138;-73
2022/01/27 02:53:59;;;;;;;;;;;23.20;45.60;;;;;;1550748;76;720;-72
2022/01/27 02:56:01;;;;;;;;;;;23.20;45.50;;;;;;1550619;77;704;-72
2022/01/27 02:58:04;;;;;;;;;;;23.20;45.50;;;;;;1536977;76;696;-72
2022/01/27 03:00:06;;;;;;;;;;;23.30;45.60;;;;;;1523504;78;566;-72
2022/01/27 03:02:08;;;;;;;;;;;23.20;45.50;;;;;;1523407;78;1156;-72
2022/01/27 03:04:10;;;;;;;;;;;23.20;45.50;;;;;;1523650;77;726;-72
2022/01/27 03:06:12;;;;;;;;;;;23.30;45.70;;;;;;1542748;76;700;-72
2022/01/27 03:08:13;;;;;;;;;;;23.20;45.60;;;;;;1523622;77;724;-72
2022/01/27 03:10:16;;;;;;;;;;;23.20;45.60;;;;;;1523536;78;1934;-72
2022/01/27 03:12:18;;;;;;;;;;;23.20;45.60;;;;;;1523393;78;1164;-73
2022/01/27 03:14:22;;;;;;;;;;;23.20;45.60;;;;;;1523537;78;706;-73
2022/01/27 03:16:23;;;;;;;;;;;23.20;45.70;;;;;;1548454;76;723;-72
2022/01/27 03:18:25;;;;;;;;;;;23.30;45.70;;;;;;1549177;75;785;-73
2022/01/27 03:20:33;;;;;;;;;;;23.30;45.70;;;;;;1525453;76;689;-72
2022/01/27 03:22:31;;;;;;;;;;;23.20;45.70;;;;;;1561200;70;2103;-68
2022/01/27 03:24:33;;;;;;;;;;;23.20;45.70;;;;;;1601608;74;687;-68
2022/01/27 03:26:35;;;;;;;;;;;23.20;45.70;;;;;;1601509;74;632;-68
2022/01/27 03:28:36;;;;;;;;;;;23.30;45.80;;;;;;1601570;73;732;-70
2022/01/27 03:30:38;;;;;;;;;;;23.30;45.70;;;;;;1601638;74;1933;-67
2022/01/27 03:32:40;;;;;;;;;;;23.30;45.70;;;;;;1618359;73;1266;-68
2022/01/27 03:34:42;;;;;;;;;;;23.30;45.70;;;;;;1630127;73;719;-67
2022/01/27 03:36:44;;;;;;;;;;;23.30;45.70;;;;;;1629901;73;737;-69
2022/01/27 03:38:46;;;;;;;;;;;23.30;45.80;;;;;;1606499;71;705;-68
2022/01/27 03:40:48;;;;;;;;;;;23.40;45.80;;;;;;1616079;71;717;-69
2022/01/27 03:42:51;;;;;;;;;;;23.40;45.80;;;;;;1660012;71;1065;-69
2022/01/27 03:44:53;;;;;;;;;;;23.40;46.00;;;;;;1659016;71;798;-69
2022/01/27 03:46:55;;;;;;;;;;;23.40;45.90;;;;;;1629411;71;733;-69
2022/01/27 03:48:57;;;;;;;;;;;23.40;45.90;;;;;;1604580;71;749;-69
2022/01/27 03:50:59;;;;;;;;;;;23.40;45.80;;;;;;1648145;71;1943;-69
2022/01/27 03:53:00;;;;;;;;;;;23.50;46.00;;;;;;1659774;71;1116;-68
2022/01/27 03:55:02;;;;;;;;;;;23.50;46.00;;;;;;1634542;71;699;-68
2022/01/27 03:57:04;;;;;;;;;;;23.50;45.90;;;;;;1618976;72;737;-71
2022/01/27 03:59:06;;;;;;;;;;;23.50;45.90;;;;;;1599994;74;774;-69
2022/01/27 04:01:08;;;;;;;;;;;23.50;45.70;;;;;;1599910;74;876;-68
2022/01/27 04:03:13;;;;;;;;;;;23.50;45.70;;;;;;1631558;71;1158;-68
2022/01/27 04:05:13;;;;;;;;;;;23.50;45.60;;;;;;1659358;71;1637;-68
2022/01/27 04:07:15;;;;;;;;;;;23.60;45.50;;;;;;1659859;71;761;-68
2022/01/27 04:09:17;;;;;;;;;;;23.60;45.50;;;;;;1659950;71;618;-72
2022/01/27 04:11:19;;;;;;;;;;;23.50;45.40;;;;;;1659718;71;1942;-71
2022/01/27 04:13:21;;;;;;;;;;;23.60;45.50;;;;;;1604913;71;1102;-69
2022/01/27 04:15:23;;;;;;;;;;;23.60;45.50;;;;;;1601757;74;787;-68
2022/01/27 04:17:25;;;;;;;;;;;23.60;45.50;;;;;;1601677;74;750;-68
2022/01/27 04:19:26;;;;;;;;;;;23.60;45.40;;;;;;1619466;71;718;-72
2022/01/27 04:21:28;;;;;;;;;;;23.60;45.40;;;;;;1639875;71;727;-71
2022/01/27 04:23:30;;;;;;;;;;;23.60;45.50;;;;;;1639682;71;776;-70
2022/01/27 04:25:32;;;;;;;;;;;23.60;45.50;;;;;;1643924;71;773;-71
2022/01/27 04:27:37;;;;;;;;;;;23.60;45.50;;;;;;1639871;71;821;-71
2022/01/27 04:29:39;;;;;;;;;;;23.60;45.50;;;;;;1639528;71;1928;-71
2022/01/27 04:31:43;;;;;;;;;;;23.60;45.50;;;;;;1636308;71;1153;-68
2022/01/27 04:33:45;;;;;;;;;;;23.60;45.60;;;;;;1639436;71;1157;-69
2022/01/27 04:35:49;;;;;;;;;;;23.60;45.60;;;;;;1639748;71;794;-71
2022/01/27 04:38:13;;;;;;;;;;;23.70;45.70;;;;;;1634068;71;1660;-68
2022/01/27 04:40:12;;;;;;;;;;;23.70;45.80;;;;;;1630098;71;1769;-68
2022/01/27 04:42:20;;;;;;;;;;;23.60;45.70;;;;;;1639392;71;1750;-69
2022/01/27 04:46:33;;;;;;;;;;;23.60;45.60;;;;;;1629968;71;850;-71
2022/01/27 04:48:34;;;;;;;;;;;23.60;45.60;;;;;;1637983;71;1619;-79
2022/01/27 04:50:32;;;;;;;;;;;23.60;45.60;;;;;;1628942;71;1904;-71
2022/01/27 04:52:38;;;;;;;;;;;23.60;45.60;;;;;;1615667;73;1085;-68
2022/01/27 04:54:54;;;;;;;;;;;23.70;45.70;;;;;;1613624;73;1680;-68
2022/01/27 04:56:42;;;;;;;;;;;23.60;45.50;;;;;;1601793;71;1589;-68
2022/01/27 04:58:47;;;;;;;;;;;23.70;45.70;;;;;;1630076;73;781;-68
2022/01/27 05:00:47;;;;;;;;;;;23.50;45.70;;;;;;1629627;73;1685;-68
2022/01/27 05:02:50;;;;;;;;;;;23.60;45.90;;;;;;1630027;73;1176;-68
2022/01/27 05:04:52;;;;;;;;;;;23.70;46.00;;;;;;1630122;71;780;-75
2022/01/27 05:06:54;;;;;;;;;;;23.70;46.00;;;;;;1602490;73;840;-68
2022/01/27 05:08:56;;;;;;;;;;;23.70;46.00;;;;;;1601692;74;781;-68
2022/01/27 05:11:07;;;;;;;;;;;23.60;45.80;;;;;;1601603;74;1940;-69
2022/01/27 05:13:16;;;;;;;;;;;23.70;45.90;;;;;;1600953;71;1550;-69
2022/01/27 05:15:11;;;;;;;;;;;23.70;46.00;;;;;;1599575;74;1609;-69
2022/01/27 05:17:13;;;;;;;;;;;23.70;45.90;;;;;;1601544;74;740;-69
2022/01/27 05:19:15;;;;;;;;;;;23.70;45.80;;;;;;1612517;71;737;-69
2022/01/27 05:21:17;;;;;;;;;;;23.70;45.80;;;;;;1630210;73;699;-68
2022/01/27 05:23:19;;;;;;;;;;;23.70;45.70;;;;;;1629987;73;1126;-68
2022/01/27 05:25:20;;;;;;;;;;;23.70;45.70;;;;;;1630080;73;783;-70
2022/01/27 05:27:22;;;;;;;;;;;23.70;45.90;;;;;;1630127;73;720;-69
2022/01/27 05:29:24;;;;;;;;;;;23.70;45.90;;;;;;1630022;71;667;-68
2022/01/27 05:31:26;;;;;;;;;;;23.70;45.80;;;;;;1630102;73;1917;-69
2022/01/27 05:33:28;;;;;;;;;;;23.70;45.90;;;;;;1630047;73;1158;-68
2022/01/27 05:35:30;;;;;;;;;;;23.70;45.80;;;;;;1630164;73;766;-68
2022/01/27 05:37:32;;;;;;;;;;;23.70;45.70;;;;;;1629983;71;770;-68
2022/01/27 05:39:34;;;;;;;;;;;23.80;45.70;;;;;;1629963;73;697;-68
2022/01/27 05:41:35;;;;;;;;;;;23.80;45.60;;;;;;1629671;71;1146;-68
2022/01/27 05:43:37;;;;;;;;;;;23.80;45.70;;;;;;1660119;71;771;-68
2022/01/27 05:45:39;;;;;;;;;;;23.80;45.70;;;;;;1632741;71;746;-70
2022/01/27 05:47:41;;;;;;;;;;;23.80;45.70;;;;;;1601802;74;722;-73
2022/01/27 05:49:43;;;;;;;;;;;23.80;45.90;;;;;;1619104;71;745;-69
2022/01/27 05:51:45;;;;;;;;;;;23.70;45.80;;;;;;1614995;73;1931;-68
2022/01/27 05:53:47;;;;;;;;;;;23.80;45.90;;;;;;1630311;71;715;-69
2022/01/27 05:55:48;;;;;;;;;;;23.80;45.70;;;;;;1650099;71;771;-69
2022/01/27 05:57:50;;;;;;;;;;;23.80;45.50;;;;;;1630098;71;745;-69
2022/01/27 05:59:52;;;;;;;;;;;23.80;45.40;;;;;;1638730;71;668;-69
2022/01/27 06:01:54;;;;;;;;;;;23.70;45.30;;;;;;1627894;71;1180;-71
2022/01/27 06:03:56;;;;;;;;;;;23.80;45.20;;;;;;1634067;71;786;-69
2022/01/27 06:05:58;;;;;;;;;;;23.80;45.20;;;;;;1599946;74;736;-67
2022/01/27 06:08:00;;;;;;;;;;;23.90;45.20;;;;;;1600086;74;775;-69
2022/01/27 06:10:02;;;;;;;;;;;23.90;45.20;;;;;;1600037;74;704;-69
2022/01/27 06:12:04;;;;;;;;;;;23.90;45.10;;;;;;1618350;71;1893;-69
2022/01/27 06:14:06;;;;;;;;;;;23.80;45.00;;;;;;1630042;73;842;-68
2022/01/27 06:16:12;;;;;;;;;;;23.90;45.10;;;;;;1630004;73;704;-68
2022/01/27 06:18:14;;;;;;;;;;;23.80;45.00;;;;;;1630030;73;684;-69
2022/01/27 06:20:16;;;;;;;;;;;23.90;45.10;;;;;;1606591;71;678;-69
2022/01/27 06:22:18;;;;;;;;;;;23.90;45.10;;;;;;1616639;71;1092;-70
2022/01/27 06:24:20;;;;;;;;;;;23.90;45.10;;;;;;1660095;71;774;-70
2022/01/27 06:26:22;;;;;;;;;;;23.80;45.00;;;;;;1660002;71;707;-71
2022/01/27 06:28:24;;;;;;;;;;;23.80;45.00;;;;;;1659982;71;710;-66
2022/01/27 06:30:26;;;;;;;;;;;23.80;45.00;;;;;;1660085;71;1934;-68
2022/01/27 06:32:28;;;;;;;;;;;23.90;45.00;;;;;;1644495;71;1114;-72
2022/01/27 06:34:30;;;;;;;;;;;23.90;45.00;;;;;;1627237;71;715;-76
2022/01/27 06:36:32;;;;;;;;;;;23.80;45.00;;;;;;1609143;71;741;-70
2022/01/27 06:38:34;;;;;;;;;;;23.80;45.00;;;;;;1624973;71;734;-70
2022/01/27 06:40:36;;;;;;;;;;;23.90;45.00;;;;;;1634197;71;799;-71
2022/01/27 06:42:37;;;;;;;;;;;23.80;44.90;;;;;;1615533;73;1151;-71
2022/01/27 06:44:39;;;;;;;;;;;23.90;45.00;;;;;;1600038;73;766;-70
2022/01/27 06:46:41;;;;;;;;;;;23.90;45.00;;;;;;1628856;71;668;-71
2022/01/27 06:48:43;;;;;;;;;;;23.90;45.00;;;;;;1629913;71;726;-72
2022/01/27 06:50:50;;;;;;;;;;;23.80;44.90;;;;;;1630002;73;1935;-71
2022/01/27 06:52:48;;;;;;;;;;;23.80;44.90;;;;;;1629851;71;1648;-70
2022/01/27 06:54:52;;;;;;;;;;;23.80;44.90;;;;;;1635193;71;724;-71
2022/01/27 06:56:54;;;;;;;;;;;23.80;44.90;;;;;;1629391;73;771;-73
2022/01/27 06:58:56;;;;;;;;;;;23.80;44.80;;;;;;1617707;73;722;-71
2022/01/27 07:00:58;;;;;;;;;;;23.80;44.80;;;;;;1626217;71;816;-72
2022/01/27 07:03:00;;;;;;;;;;;23.70;44.80;;;;;;1616050;73;1148;-71
2022/01/27 07:05:02;;;;;;;;;;;23.70;44.80;;;;;;1630053;73;733;-70
2022/01/27 07:07:03;;;;;;;;;;;23.90;45.00;;;;;;1629985;72;712;-71
2022/01/27 07:09:05;;;;;;;;;;;23.80;44.90;;;;;;1629954;71;787;-71
2022/01/27 07:11:07;;;;;;;;;;;23.70;44.90;;;;;;1627558;73;1943;-71
2022/01/27 07:13:10;;;;;;;;;;;23.90;44.90;;;;;;1623719;73;1126;-71
2022/01/27 07:15:12;;;;;;;;;;;23.80;44.90;;;;;;1623597;72;768;-71
2022/01/27 07:17:17;;;;;;;;;;;23.80;44.90;;;;;;1623608;72;738;-71
2022/01/27 07:19:18;;;;;;;;;;;23.90;45.00;;;;;;1629000;71;1691;-70
2022/01/27 07:21:20;;;;;;;;;;;23.70;45.00;;;;;;1630112;73;770;-70
2022/01/27 07:23:22;;;;;;;;;;;23.80;45.20;;;;;;1629829;73;1075;-69
2022/01/27 07:25:23;;;;;;;;;;;23.70;45.40;;;;;;1630053;73;775;-75
2022/01/27 07:27:25;;;;;;;;;;;23.80;45.20;;;;;;1629850;71;750;-75
2022/01/27 07:29:27;;;;;;;;;;;23.70;45.00;;;;;;1615742;71;688;-73
2022/01/27 07:31:29;;;;;;;;;;;23.70;44.90;;;;;;1627178;71;1937;-73
2022/01/27 07:33:31;;;;;;;;;;;23.70;44.50;;;;;;1641711;71;754;-73
2022/01/27 07:35:33;;;;;;;;;;;23.60;43.90;;;;;;1630842;71;726;-73
2022/01/27 07:37:36;;;;;;;;;;;23.50;43.60;;;;;;1633113;71;664;-74
2022/01/27 07:39:38;;;;;;;;;;;23.50;43.40;;;;;;1626631;71;661;-71
2022/01/27 07:41:40;;;;;;;;;;;23.50;43.00;;;;;;1617024;71;1099;-74
2022/01/27 07:43:41;;;;;;;;;;;23.40;42.60;;;;;;1628417;71;797;-73
2022/01/27 07:45:43;;;;;;;;;;;23.30;42.50;;;;;;1639497;71;771;-71
2022/01/27 07:47:45;;;;;;;;;;;23.40;42.30;;;;;;1628756;73;795;-72
2022/01/27 07:49:47;;;;;;;;;;;23.30;42.10;;;;;;1627552;71;790;-71
2022/01/27 07:51:49;;;;;;;;;;;23.20;41.90;;;;;;1616361;71;1944;-73
2022/01/27 07:53:51;;;;;;;;;;;23.20;41.60;;;;;;1632168;71;722;-70
2022/01/27 07:55:53;;;;;;;;;;;23.30;41.70;;;;;;1639720;71;742;-71
2022/01/27 07:57:55;;;;;;;;;;;23.20;41.50;;;;;;1617578;71;703;-71
2022/01/27 07:59:56;;;;;;;;;;;23.10;41.50;;;;;;1627545;71;685;-71
2022/01/27 08:01:58;;;;;;;;;;;23.10;41.30;;;;;;1630435;71;1158;-71
2022/01/27 08:04:00;;;;;;;;;;;23.00;41.20;;;;;;1625617;71;782;-70
2022/01/27 08:06:03;;;;;;;;;;;23.10;41.30;;;;;;1616065;71;772;-72
2022/01/27 08:08:05;;;;;;;;;;;23.00;41.10;;;;;;1625673;73;792;-69
2022/01/27 08:10:06;;;;;;;;;;;23.10;41.20;;;;;;1633956;71;712;-71
2022/01/27 08:12:08;;;;;;;;;;;22.90;41.00;;;;;;1627369;71;1944;-71
2022/01/27 08:14:12;;;;;;;;;;;22.90;40.90;;;;;;1642272;71;824;-70
2022/01/27 08:16:14;;;;;;;;;;;22.90;40.80;;;;;;1626754;71;763;-71
2022/01/27 08:18:16;;;;;;;;;;;22.90;40.80;;;;;;1638023;71;679;-71
2022/01/27 08:20:18;;;;;;;;;;;22.90;40.80;;;;;;1630543;71;718;-71
2022/01/27 08:22:19;;;;;;;;;;;22.90;40.80;;;;;;1635437;71;1125;-71
2022/01/27 08:24:21;;;;;;;;;;;22.80;40.70;;;;;;1640007;71;790;-72
2022/01/27 08:26:38;;;;;;;;;;;22.80;40.60;;;;;;1617773;71;836;-73
2022/01/27 08:28:41;;;;;;;;;;;22.80;40.60;;;;;;1627400;71;1587;-71
2022/01/27 08:30:42;;;;;;;;;;;22.80;40.50;;;;;;1627483;71;1682;-71
2022/01/27 08:32:56;;;;;;;;;;;22.80;40.60;;;;;;1628281;73;1941;-69
2022/01/27 08:34:52;;;;;;;;;;;22.80;40.60;;;;;;1628140;73;980;-71
2022/01/27 08:36:54;;;;;;;;;;;22.80;40.50;;;;;;1623723;71;696;-71
2022/01/27 08:38:55;;;;;;;;;;;22.70;40.50;;;;;;1628929;71;750;-71
2022/01/27 08:40:59;;;;;;;;;;;22.80;40.50;;;;;;1628338;71;716;-74
2022/01/27 08:43:01;;;;;;;;;;;22.80;40.40;;;;;;1622413;73;1129;-69
2022/01/27 08:45:03;;;;;;;;;;;22.80;40.30;;;;;;1629295;71;712;-71
2022/01/27 08:47:05;;;;;;;;;;;22.70;40.70;;;;;;1627580;71;678;-70
2022/01/27 08:49:07;;;;;;;;;;;22.80;40.80;;;;;;1620838;71;735;-71
2022/01/27 08:51:11;;;;;;;;;;;22.80;41.10;;;;;;1632433;71;1913;-70
2022/01/27 08:53:13;;;;;;;;;;;22.80;41.20;;;;;;1631616;71;1147;-69
2022/01/27 08:55:16;;;;;;;;;;;22.80;41.30;;;;;;1625788;71;767;-70
2022/01/27 08:57:18;;;;;;;;;;;23.00;41.50;;;;;;1629468;71;770;-68
2022/01/27 08:59:19;;;;;;;;;;;23.00;41.60;;;;;;1631804;71;753;-71
2022/01/27 09:01:23;;;;;;;;;;;23.00;41.70;;;;;;1634961;71;753;-73
2022/01/27 09:03:25;;;;;;;;;;;23.00;41.80;;;;;;1631531;71;1679;-70
2022/01/27 09:05:27;;;;;;;;;;;23.00;41.80;;;;;;1628251;71;814;-70
2022/01/27 09:07:29;;;;;;;;;;;23.10;42.00;;;;;;1630494;71;742;-70
2022/01/27 09:09:30;;;;;;;;;;;23.20;42.10;;;;;;1641738;71;777;-70
2022/01/27 09:11:33;;;;;;;;;;;23.20;42.10;;;;;;1634570;71;1934;-71
2022/01/27 09:13:36;;;;;;;;;;;23.20;42.20;;;;;;1627378;71;699;-72
2022/01/27 09:15:37;;;;;;;;;;;23.20;42.20;;;;;;1627951;71;793;-70
2022/01/27 09:17:40;;;;;;;;;;;23.30;42.40;;;;;;1632151;71;730;-75
2022/01/27 09:19:42;;;;;;;;;;;23.30;42.50;;;;;;1617894;71;821;-68
2022/01/27 09:21:46;;;;;;;;;;;23.30;42.60;;;;;;1628568;73;1149;-69
2022/01/27 09:23:48;;;;;;;;;;;23.30;42.60;;;;;;1628096;71;758;-70
2022/01/27 09:25:54;;;;;;;;;;;23.30;42.60;;;;;;1628535;73;790;-70
2022/01/27 09:27:55;;;;;;;;;;;23.40;42.60;;;;;;1628008;71;1188;-71
2022/01/27 09:29:57;;;;;;;;;;;23.40;42.70;;;;;;1629800;71;966;-70
2022/01/27 09:31:59;;;;;;;;;;;23.40;42.70;;;;;;1629142;73;1940;-70
2022/01/27 09:34:01;;;;;;;;;;;23.40;42.70;;;;;;1633176;71;790;-69
2022/01/27 09:36:11;;;;;;;;;;;23.50;42.80;;;;;;1622571;71;783;-69
2022/01/27 09:38:06;;;;;;;;;;;23.40;42.70;;;;;;1626023;71;1665;-69
2022/01/27 09:40:08;;;;;;;;;;;23.50;42.80;;;;;;1625944;71;715;-69
2022/01/27 09:42:10;;;;;;;;;;;23.50;42.70;;;;;;1635958;71;1142;-70
2022/01/27 09:44:13;;;;;;;;;;;23.60;42.80;;;;;;1623621;71;693;-69
2022/01/27 09:46:20;;;;;;;;;;;23.60;42.70;;;;;;1638596;71;719;-70
2022/01/27 09:48:20;;;;;;;;;;;23.60;42.70;;;;;;1630062;71;1603;-70
2022/01/27 09:50:34;;;;;;;;;;;23.70;42.80;;;;;;1629142;71;962;-70
2022/01/27 09:52:29;;;;;;;;;;;23.70;42.80;;;;;;1630309;71;1925;-70
2022/01/27 09:54:30;;;;;;;;;;;23.70;42.70;;;;;;1626270;71;729;-69
2022/01/27 09:56:34;;;;;;;;;;;23.70;42.70;;;;;;1616085;73;789;-69
2022/01/27 09:58:35;;;;;;;;;;;23.70;42.70;;;;;;1638986;71;753;-70
2022/01/27 10:00:37;;;;;;;;;;;23.70;42.70;;;;;;1629863;71;720;-70
2022/01/27 10:02:39;;;;;;;;;;;23.80;42.70;;;;;;1624831;71;1170;-77
2022/01/27 10:04:49;;;;;;;;;;;23.80;42.60;;;;;;1629033;71;815;-73
2022/01/27 10:06:52;;;;;;;;;;;23.90;42.70;;;;;;1624085;71;1587;-68
2022/01/27 10:09:12;;;;;;;;;;;23.80;42.60;;;;;;1625729;71;1805;-71
2022/01/27 10:11:15;;;;;;;;;;;23.80;42.60;;;;;;1621374;71;728;-69
2022/01/27 10:13:31;;;;;;;;;;;23.80;42.60;;;;;;1624140;71;1905;-69
2022/01/27 10:15:34;;;;;;;;;;;23.80;42.60;;;;;;1629560;71;904;-69
2022/01/27 10:17:39;;;;;;;;;;;23.90;42.70;;;;;;1629365;71;641;-70
2022/01/27 10:19:40;;;;;;;;;;;23.90;42.70;;;;;;1627850;71;1152;-69
2022/01/27 10:21:42;;;;;;;;;;;23.80;42.60;;;;;;1629213;71;1216;-70
2022/01/27 10:23:44;;;;;;;;;;;23.90;42.70;;;;;;1625523;73;878;-70
2022/01/27 10:25:51;;;;;;;;;;;23.90;42.70;;;;;;1619265;71;786;-70
2022/01/27 10:28:09;;;;;;;;;;;23.90;42.60;;;;;;1616383;71;1132;-70
2022/01/27 10:30:35;;;;;;;;;;;23.90;42.60;;;;;;1634196;71;1611;-72
2022/01/27 10:32:06;;;;;;;;;;;23.90;42.70;;;;;;1617693;73;1941;-72
2022/01/27 10:34:10;;;;;;;;;;;23.90;42.80;;;;;;1626685;71;827;-70
2022/01/27 10:36:15;;;;;;;;;;;23.90;42.60;;;;;;1627967;71;704;-72
2022/01/27 10:38:18;;;;;;;;;;;23.90;42.30;;;;;;1624775;71;696;-75
2022/01/27 10:40:23;;;;;;;;;;;24.00;42.30;;;;;;1622947;71;879;-72
2022/01/27 10:42:25;;;;;;;;;;;23.90;42.40;;;;;;1629760;71;1090;-72
2022/01/27 10:44:44;;;;;;;;;;;24.00;42.40;;;;;;1622409;71;727;-72
2022/01/27 10:47:05;;;;;;;;;;;23.90;42.40;;;;;;1635116;71;1640;-72
2022/01/27 10:49:10;;;;;;;;;;;23.90;42.40;;;;;;1619682;71;1660;-72
2022/01/27 10:51:16;;;;;;;;;;;23.80;42.30;;;;;;1622687;71;1632;-72
2022/01/27 10:53:15;;;;;;;;;;;23.90;42.50;;;;;;1621069;71;1936;-75
2022/01/27 10:55:18;;;;;;;;;;;23.90;42.40;;;;;;1627226;71;691;-74
2022/01/27 10:57:22;;;;;;;;;;;23.90;42.50;;;;;;1621714;71;782;-71
2022/01/27 10:59:23;;;;;;;;;;;24.00;42.40;;;;;;1620066;71;738;-72
2022/01/27 11:01:27;;;;;;;;;;;23.90;42.50;;;;;;1623102;73;660;-72
2022/01/27 11:03:29;;;;;;;;;;;23.90;42.60;;;;;;1619087;71;1582;-72
2022/01/27 11:05:32;;;;;;;;;;;23.90;42.60;;;;;;1625126;73;796;-72
2022/01/27 11:07:34;;;;;;;;;;;23.90;42.60;;;;;;1626715;73;661;-73
2022/01/27 11:09:42;;;;;;;;;;;23.90;42.60;;;;;;1618686;73;746;-74
2022/01/27 11:11:39;;;;;;;;;;;23.90;42.60;;;;;;1625849;72;1613;-73
2022/01/27 11:13:44;;;;;;;;;;;23.90;42.70;;;;;;1615631;71;1934;-71
2022/01/27 11:15:45;;;;;;;;;;;23.90;42.60;;;;;;1613486;71;1134;-72
2022/01/27 11:17:49;;;;;;;;;;;23.90;42.60;;;;;;1627684;71;783;-71
2022/01/27 11:24:17;;;;;;;;;;;23.80;42.50;;;;;;1620680;73;848;-71
2022/01/27 11:26:16;;;;;;;;;;;23.90;42.60;;;;;;1623215;73;1124;-75
2022/01/27 11:28:18;;;;;;;;;;;23.90;42.60;;;;;;1615805;71;674;-71
2022/01/27 11:30:38;;;;;;;;;;;23.80;42.60;;;;;;1625151;72;751;-72
2022/01/27 11:32:41;;;;;;;;;;;23.90;42.80;;;;;;1629054;73;1963;-75
2022/01/27 11:34:50;;;;;;;;;;;23.90;42.80;;;;;;1625262;73;1009;-74
2022/01/27 11:37:04;;;;;;;;;;;23.80;42.70;;;;;;1616125;71;732;-71
2022/01/27 11:39:11;;;;;;;;;;;23.70;42.70;;;;;;1622075;73;607;-72
2022/01/27 11:41:31;;;;;;;;;;;23.70;42.80;;;;;;1628201;71;700;-72
2022/01/27 11:43:35;;;;;;;;;;;23.70;42.90;;;;;;1621362;73;662;-71
2022/01/27 11:45:38;;;;;;;;;;;23.70;42.90;;;;;;1625685;72;710;-70
2022/01/27 11:47:47;;;;;;;;;;;23.70;43.00;;;;;;1619461;71;743;-74
2022/01/27 11:49:59;;;;;;;;;;;23.70;43.00;;;;;;1629827;71;917;-71
2022/01/27 11:52:15;;;;;;;;;;;23.50;42.90;;;;;;1621620;73;1777;-71
2022/01/27 11:54:26;;;;;;;;;;;23.60;42.90;;;;;;1627293;71;692;-70
2022/01/27 11:56:35;;;;;;;;;;;23.60;43.00;;;;;;1643825;71;807;-71
2022/01/27 11:58:46;;;;;;;;;;;23.50;43.00;;;;;;1619722;71;985;-71
2022/01/27 12:01:02;;;;;;;;;;;23.60;43.00;;;;;;1632584;71;700;-72
2022/01/27 12:03:07;;;;;;;;;;;23.40;42.90;;;;;;1567667;71;1198;-74
2022/01/27 12:05:10;;;;;;;;;;;23.40;43.00;;;;;;1628521;71;678;-74
2022/01/27 12:07:12;;;;;;;;;;;23.40;43.00;;;;;;1627963;71;1798;-71
2022/01/27 12:09:19;;;;;;;;;;;23.50;43.20;;;;;;1636874;71;788;-72
2022/01/27 12:11:39;;;;;;;;;;;23.40;43.10;;;;;;1625036;71;816;-71
2022/01/27 12:13:49;;;;;;;;;;;23.50;43.20;;;;;;1612624;71;1929;-73
2022/01/27 12:16:08;;;;;;;;;;;23.40;43.10;;;;;;1629581;71;1667;-76
2022/01/27 12:18:20;;;;;;;;;;;23.40;43.20;;;;;;1634700;71;833;-74
2022/01/27 12:20:22;;;;;;;;;;;23.40;43.20;;;;;;1606729;71;1050;-73
2022/01/27 12:22:29;;;;;;;;;;;23.40;43.20;;;;;;1598627;73;1133;-74
2022/01/27 12:24:31;;;;;;;;;;;23.40;43.30;;;;;;1625495;71;696;-72
2022/01/27 12:26:45;;;;;;;;;;;23.40;43.30;;;;;;1623676;71;777;-72
2022/01/27 12:28:47;;;;;;;;;;;23.40;43.30;;;;;;1630316;71;708;-71
2022/01/27 12:30:54;;;;;;;;;;;23.30;43.40;;;;;;1629700;71;767;-70
2022/01/27 12:32:56;;;;;;;;;;;23.40;43.40;;;;;;1631291;71;2350;-70
2022/01/27 12:34:58;;;;;;;;;;;23.30;43.40;;;;;;1631854;71;774;-73
2022/01/27 12:37:04;;;;;;;;;;;23.30;43.40;;;;;;1626303;73;733;-72
2022/01/27 12:39:06;;;;;;;;;;;23.30;43.50;;;;;;1628845;71;768;-70
2022/01/27 12:41:08;;;;;;;;;;;23.30;43.40;;;;;;1630553;71;772;-71
2022/01/27 12:43:14;;;;;;;;;;;23.30;43.50;;;;;;1631384;71;1110;-72
2022/01/27 12:45:15;;;;;;;;;;;23.30;43.50;;;;;;1599593;73;1584;-72